Aberdare, United Kingdom
Current Conditions -  °F | °C
As of 9:50 AM on Saturday 20 Dec 2014 (Local Time) from EGDX Reporting Station
Broken Clouds Broken Clouds  
Wind Chill: 42°   Ceiling: 2600
Heat Index: 48°   Visibility: 6mi
Dew Point: 39°   Wind: 18mph
Humidity: 71%   Direction: 290°WNW
Pressure: 30.36"   Gusts: NA
Location:  51.71°N, 3.45°W
Report Text: EGDX 200950Z 29016KT 9999 SCT021 BKN026 09/04 Q1028 WHT
Loading
Personal Weather Stations






























Interactive Weather Map New forecast layout! Learn more

10-Day Weather Forecast

Advertisements
Track Severe Weather on mobile